createdAt,value
2017-12-09T00:00:32.145Z,0.60
2017-12-09T00:03:00.399Z,0.60
2017-12-09T00:05:27.919Z,0.60
2017-12-09T00:07:55.393Z,0.70
2017-12-09T00:10:22.922Z,0.60
2017-12-09T00:12:50.398Z,0.60
2017-12-09T00:15:17.901Z,0.50
2017-12-09T00:17:45.412Z,0.40
2017-12-09T00:20:12.928Z,0.20
2017-12-09T00:22:41.246Z,0.10
2017-12-09T00:25:09.740Z,0.20
2017-12-09T00:27:41.670Z,0.30
2017-12-09T00:30:09.166Z,0.40
2017-12-09T00:32:36.695Z,0.40
2017-12-09T00:35:04.182Z,0.40
2017-12-09T00:37:31.737Z,0.50
2017-12-09T00:39:59.250Z,0.50
2017-12-09T00:42:26.770Z,0.50
2017-12-09T00:44:55.079Z,0.40
2017-12-09T00:47:22.574Z,0.40
2017-12-09T00:49:50.065Z,0.40
2017-12-09T00:52:17.577Z,0.20
2017-12-09T00:54:45.126Z,0.20
2017-12-09T00:57:12.602Z,0.20
2017-12-09T00:59:40.160Z,0.00
2017-12-09T01:02:08.390Z,-0.20
2017-12-09T01:04:35.925Z,-0.30
2017-12-09T01:07:03.422Z,-0.40
2017-12-09T01:09:30.896Z,-0.30
2017-12-09T01:11:59.183Z,-0.30
2017-12-09T01:14:27.466Z,-0.30
2017-12-09T01:17:07.624Z,-0.30
2017-12-09T01:19:35.866Z,-0.30
2017-12-09T01:22:03.386Z,-0.30
2017-12-09T01:24:30.877Z,-0.30
2017-12-09T01:26:58.405Z,-0.60
2017-12-09T01:29:25.922Z,-0.60
2017-12-09T01:31:53.447Z,-0.50
2017-12-09T01:34:20.930Z,-0.50
2017-12-09T01:36:48.428Z,-0.40
2017-12-09T01:39:17.850Z,-0.40
2017-12-09T01:41:46.104Z,-0.50
2017-12-09T01:44:13.593Z,-0.50
2017-12-09T01:46:41.880Z,-0.60
2017-12-09T01:49:09.391Z,-0.60
2017-12-09T01:51:36.957Z,-0.60
2017-12-09T01:54:04.475Z,-0.60
2017-12-09T01:56:31.960Z,-0.60
2017-12-09T01:58:59.482Z,-0.60
2017-12-09T02:01:27.750Z,-0.60
2017-12-09T02:03:55.294Z,-0.60
2017-12-09T02:06:22.778Z,-0.60
2017-12-09T02:08:50.444Z,-0.70
2017-12-09T02:11:17.974Z,-0.70
2017-12-09T02:13:45.518Z,-0.80
2017-12-09T02:16:13.003Z,-0.80
2017-12-09T02:18:40.493Z,-0.90
2017-12-09T02:21:08.017Z,-0.90
2017-12-09T02:23:35.497Z,-0.80
2017-12-09T02:26:03.030Z,-0.80
2017-12-09T02:28:30.586Z,-0.90
2017-12-09T02:30:58.075Z,-1.00
2017-12-09T02:33:25.590Z,-0.90
2017-12-09T02:35:53.873Z,-0.90
2017-12-09T02:38:22.169Z,-0.90
2017-12-09T02:40:49.673Z,-0.90
2017-12-09T02:43:17.160Z,-1.00
2017-12-09T02:45:44.681Z,-1.00
2017-12-09T02:48:12.158Z,-0.90
2017-12-09T02:50:39.672Z,-0.80
2017-12-09T02:53:07.959Z,-0.60
2017-12-09T02:55:35.442Z,-0.60
2017-12-09T02:58:02.973Z,-0.50
2017-12-09T03:00:31.242Z,-0.40
2017-12-09T03:02:58.722Z,-0.40
2017-12-09T03:05:27.000Z,-0.30
2017-12-09T03:07:55.246Z,-0.30
2017-12-09T03:10:22.764Z,-0.30
2017-12-09T03:12:50.238Z,-0.40
2017-12-09T03:15:17.752Z,-0.50
2017-12-09T03:17:45.262Z,-0.60
2017-12-09T03:20:12.747Z,-0.60
2017-12-09T03:22:40.258Z,-0.60
2017-12-09T03:25:08.547Z,-0.60
2017-12-09T03:27:36.851Z,-0.70
2017-12-09T03:30:04.335Z,-0.60
2017-12-09T03:32:31.830Z,-0.50
2017-12-09T03:34:59.356Z,-0.40
2017-12-09T03:37:26.837Z,-0.40
2017-12-09T03:39:54.361Z,-0.40
2017-12-09T03:42:21.859Z,-0.30
2017-12-09T03:44:49.389Z,-0.20
2017-12-09T03:47:16.879Z,-0.10
2017-12-09T03:49:44.398Z,-0.10
2017-12-09T03:52:12.665Z,0.00
2017-12-09T03:54:40.938Z,-0.20
2017-12-09T03:57:08.471Z,-0.20
2017-12-09T03:59:35.991Z,-0.30
2017-12-09T04:02:03.489Z,-0.30
2017-12-09T04:04:30.998Z,-0.20
2017-12-09T04:06:59.262Z,-0.30
2017-12-09T04:09:26.743Z,-0.30
2017-12-09T04:11:55.002Z,-0.40
2017-12-09T04:14:22.510Z,-0.40
2017-12-09T04:16:50.031Z,-0.40
2017-12-09T04:19:17.544Z,-0.40
2017-12-09T04:21:45.070Z,-0.50
2017-12-09T04:24:13.321Z,-0.50
2017-12-09T04:26:40.804Z,-0.50
2017-12-09T04:29:08.318Z,-0.60
2017-12-09T04:31:35.793Z,-0.60
2017-12-09T04:34:03.321Z,-0.80
2017-12-09T04:36:30.850Z,-0.90
2017-12-09T04:38:58.413Z,-0.90
2017-12-09T04:41:25.897Z,-1.00
2017-12-09T04:43:54.214Z,-1.10
2017-12-09T04:46:21.714Z,-1.10
2017-12-09T04:48:49.189Z,-1.00
2017-12-09T04:51:16.706Z,-0.90
2017-12-09T04:53:44.232Z,-0.90
2017-12-09T04:56:12.486Z,-0.80
2017-12-09T04:58:40.017Z,-0.90
2017-12-09T05:01:07.543Z,-0.90
2017-12-09T05:03:35.803Z,-0.70
2017-12-09T05:06:03.322Z,-0.70
2017-12-09T05:08:30.801Z,-0.70
2017-12-09T05:10:58.287Z,-0.60
2017-12-09T05:13:25.815Z,-0.50
2017-12-09T05:15:53.396Z,-0.50
2017-12-09T05:18:20.881Z,-0.40
2017-12-09T05:20:48.395Z,-0.60
2017-12-09T05:23:15.878Z,-0.50
2017-12-09T05:25:43.409Z,-0.40
2017-12-09T05:28:10.931Z,-0.40
2017-12-09T05:30:38.416Z,-0.50
2017-12-09T05:33:06.707Z,-0.40
2017-12-09T05:35:34.215Z,-0.40
2017-12-09T05:38:01.733Z,-0.40
2017-12-09T05:40:29.994Z,-0.50
2017-12-09T05:42:57.523Z,-0.50
2017-12-09T05:45:25.082Z,-0.50
2017-12-09T05:47:52.560Z,-0.60
2017-12-09T05:50:20.046Z,-0.50
2017-12-09T05:52:47.613Z,-0.60
2017-12-09T05:55:15.129Z,-0.60
2017-12-09T05:57:42.651Z,-0.50
2017-12-09T06:00:10.933Z,-0.50
2017-12-09T06:02:39.209Z,-0.50
2017-12-09T06:05:07.478Z,-0.50
2017-12-09T06:07:35.033Z,-0.50
2017-12-09T06:10:02.521Z,-0.60
2017-12-09T06:12:30.784Z,-0.60
2017-12-09T06:14:58.317Z,-0.60
2017-12-09T06:17:25.821Z,-0.50
2017-12-09T06:19:53.304Z,-0.60
2017-12-09T06:22:20.827Z,-0.60
2017-12-09T06:24:48.346Z,-0.70
2017-12-09T06:27:15.841Z,-0.60
2017-12-09T06:29:43.346Z,-0.60
2017-12-09T06:32:11.596Z,-0.70
2017-12-09T06:34:39.125Z,-0.70
2017-12-09T06:37:06.638Z,-0.80
2017-12-09T06:39:34.118Z,-0.80
2017-12-09T06:42:02.397Z,-0.90
2017-12-09T06:44:30.698Z,-0.90
2017-12-09T06:46:58.192Z,-0.90
2017-12-09T06:49:25.711Z,-0.90
2017-12-09T06:51:53.993Z,-0.80
2017-12-09T06:54:22.238Z,-0.70
2017-12-09T06:56:49.758Z,-0.70
2017-12-09T06:59:17.280Z,-0.60
2017-12-09T07:01:45.540Z,-0.50
2017-12-09T07:04:13.056Z,-0.50
2017-12-09T07:06:40.572Z,-0.50
2017-12-09T07:09:08.069Z,-0.40
2017-12-09T07:11:36.322Z,-0.50
2017-12-09T07:14:03.853Z,-0.50
2017-12-09T07:16:31.346Z,-0.60
2017-12-09T07:18:58.854Z,-0.60
2017-12-09T07:21:26.390Z,-0.70
2017-12-09T07:23:54.630Z,-0.70
2017-12-09T07:26:22.115Z,-0.70
2017-12-09T07:28:49.635Z,-0.70
2017-12-09T07:31:17.112Z,-0.70
2017-12-09T07:33:44.630Z,-0.80
2017-12-09T07:36:12.944Z,-0.70
2017-12-09T07:38:40.467Z,-0.70
2017-12-09T07:41:08.712Z,-0.70
2017-12-09T07:43:36.222Z,-0.70
2017-12-09T07:46:04.477Z,-0.60
2017-12-09T07:48:32.016Z,-0.70
2017-12-09T07:50:59.490Z,-0.60
2017-12-09T07:53:26.987Z,-0.50
2017-12-09T07:55:55.270Z,-0.30
2017-12-09T07:58:23.556Z,-0.20
2017-12-09T08:00:51.847Z,-0.10
2017-12-09T08:03:19.335Z,-0.10
2017-12-09T08:05:46.850Z,-0.10
2017-12-09T08:08:15.106Z,0.10
2017-12-09T08:10:42.630Z,0.00
2017-12-09T08:13:10.123Z,0.00
2017-12-09T08:15:37.631Z,0.00
2017-12-09T08:18:05.909Z,0.20
2017-12-09T08:20:34.191Z,0.30
2017-12-09T08:23:02.451Z,0.30
2017-12-09T08:25:30.745Z,0.20
2017-12-09T08:27:58.993Z,0.20
2017-12-09T08:30:26.518Z,0.20
2017-12-09T08:32:53.992Z,0.30
2017-12-09T08:35:21.523Z,0.20
2017-12-09T08:37:49.786Z,0.10
2017-12-09T08:40:17.307Z,0.00
2017-12-09T08:42:44.825Z,0.10
2017-12-09T08:45:13.066Z,0.20
2017-12-09T08:47:40.539Z,0.20
2017-12-09T08:50:08.064Z,0.20
2017-12-09T08:52:35.537Z,0.00
2017-12-09T08:55:03.059Z,0.10
2017-12-09T08:57:31.324Z,0.20
2017-12-09T08:59:58.904Z,0.20
2017-12-09T09:02:27.184Z,0.50
2017-12-09T09:04:55.431Z,0.40
2017-12-09T09:07:22.961Z,0.40
2017-12-09T09:09:51.075Z,0.50
2017-12-09T09:12:18.594Z,0.50
2017-12-09T09:14:46.107Z,0.60
2017-12-09T09:17:13.621Z,0.70
2017-12-09T09:19:41.139Z,0.70
2017-12-09T09:22:08.640Z,0.90
2017-12-09T09:24:36.158Z,1.00
2017-12-09T09:27:03.663Z,1.10
2017-12-09T09:29:31.147Z,1.10
2017-12-09T09:31:58.670Z,0.90
2017-12-09T09:34:26.950Z,0.90
2017-12-09T09:36:55.234Z,0.80
2017-12-09T09:39:23.487Z,0.80
2017-12-09T09:41:51.014Z,0.80
2017-12-09T09:44:18.499Z,0.80
2017-12-09T09:46:46.003Z,1.10
2017-12-09T09:49:14.265Z,1.30
2017-12-09T09:51:41.793Z,1.30
2017-12-09T09:54:09.283Z,1.30
2017-12-09T09:56:36.787Z,1.60
2017-12-09T09:59:04.281Z,1.30
2017-12-09T10:01:31.792Z,1.60
2017-12-09T10:04:00.087Z,1.70
2017-12-09T10:06:28.365Z,1.70
2017-12-09T10:08:56.711Z,1.80
2017-12-09T10:11:24.186Z,1.80
2017-12-09T10:13:51.698Z,2.20
2017-12-09T10:16:19.201Z,2.40
2017-12-09T10:18:46.722Z,2.60
2017-12-09T10:21:14.209Z,2.10
2017-12-09T10:23:41.692Z,2.00
2017-12-09T10:26:09.212Z,2.10
2017-12-09T10:28:36.754Z,2.10
2017-12-09T10:31:05.025Z,2.20
2017-12-09T10:33:33.308Z,2.10
2017-12-09T10:36:01.569Z,1.90
2017-12-09T10:38:29.082Z,1.90
2017-12-09T10:40:56.574Z,1.60
2017-12-09T10:43:24.092Z,1.30
2017-12-09T10:45:51.615Z,1.10
2017-12-09T10:48:19.126Z,1.60
2017-12-09T10:50:46.618Z,1.60
2017-12-09T10:53:14.131Z,1.80
2017-12-09T10:55:42.384Z,2.20
2017-12-09T10:58:09.889Z,2.20
2017-12-09T11:00:37.387Z,2.40
2017-12-09T11:03:04.857Z,2.00
2017-12-09T11:05:32.371Z,2.00
2017-12-09T11:07:59.856Z,2.20
2017-12-09T11:10:27.374Z,2.20
2017-12-09T11:12:54.887Z,2.40
2017-12-09T11:15:22.361Z,2.50
2017-12-09T11:17:50.090Z,2.60
2017-12-09T11:20:18.390Z,1.90
2017-12-09T11:22:45.874Z,1.90
2017-12-09T11:25:13.391Z,1.60
2017-12-09T11:27:41.628Z,1.50
2017-12-09T11:30:09.175Z,1.60
2017-12-09T11:32:36.647Z,1.60
2017-12-09T11:35:04.128Z,1.40
2017-12-09T11:37:31.667Z,1.60
2017-12-09T11:39:59.143Z,1.60
2017-12-09T11:42:26.618Z,1.40
2017-12-09T11:44:54.140Z,1.10
2017-12-09T11:47:21.618Z,0.90
2017-12-09T11:49:49.145Z,0.90
2017-12-09T11:52:16.625Z,0.70
2017-12-09T11:54:44.137Z,0.80
2017-12-09T11:57:11.651Z,1.00
2017-12-09T11:59:39.170Z,1.10
2017-12-09T12:02:06.649Z,1.20
2017-12-09T12:04:34.894Z,0.90
2017-12-09T12:07:02.399Z,0.90
2017-12-09T12:09:30.651Z,0.70
2017-12-09T12:11:58.174Z,0.70
2017-12-09T12:14:25.655Z,0.70
2017-12-09T12:16:53.130Z,0.50
2017-12-09T12:19:20.629Z,0.40
2017-12-09T12:21:48.916Z,0.30
2017-12-09T12:24:16.426Z,0.30
2017-12-09T12:26:43.907Z,0.40
2017-12-09T12:29:11.426Z,0.50
2017-12-09T12:31:38.900Z,0.50
2017-12-09T12:34:06.406Z,0.40
2017-12-09T12:36:33.894Z,0.90
2017-12-09T12:39:01.417Z,1.40
2017-12-09T12:41:28.954Z,1.40
2017-12-09T12:43:56.426Z,1.50
2017-12-09T12:46:23.915Z,1.50
2017-12-09T12:48:51.440Z,1.60
2017-12-09T12:51:18.910Z,1.70
2017-12-09T12:53:46.399Z,1.70
2017-12-09T12:56:13.918Z,1.80
2017-12-09T12:58:41.437Z,2.20
2017-12-09T13:01:08.951Z,2.60
2017-12-09T13:03:36.459Z,3.20
2017-12-09T13:06:04.037Z,3.80
2017-12-09T13:08:31.512Z,3.90
2017-12-09T13:10:59.790Z,3.80
2017-12-09T13:13:28.070Z,4.10
2017-12-09T13:15:56.314Z,4.50
2017-12-09T13:18:23.836Z,4.40
2017-12-09T13:20:51.356Z,4.40
2017-12-09T13:23:18.851Z,4.60
2017-12-09T13:25:46.329Z,4.50
2017-12-09T13:28:13.843Z,4.50
2017-12-09T13:30:41.329Z,4.40
2017-12-09T13:33:09.615Z,4.00
2017-12-09T13:35:37.152Z,4.00
2017-12-09T13:38:04.666Z,3.70
2017-12-09T13:40:32.162Z,3.30
2017-12-09T13:42:59.686Z,3.10
2017-12-09T13:45:27.166Z,3.00
2017-12-09T13:47:54.656Z,2.70
2017-12-09T13:50:22.231Z,2.60
2017-12-09T13:52:50.498Z,2.50
2017-12-09T13:55:18.011Z,2.50
2017-12-09T13:57:45.525Z,2.20
2017-12-09T14:00:13.054Z,2.20
2017-12-09T14:02:41.412Z,2.00
2017-12-09T14:05:08.934Z,2.00
2017-12-09T14:07:36.449Z,1.70
2017-12-09T14:10:03.966Z,1.60
2017-12-09T14:12:31.479Z,1.40
2017-12-09T14:14:59.012Z,1.50
2017-12-09T14:17:27.254Z,1.20
2017-12-09T14:19:54.762Z,1.20
2017-12-09T14:22:23.037Z,1.20
2017-12-09T14:24:51.318Z,1.10
2017-12-09T14:27:19.565Z,1.00
2017-12-09T14:29:47.075Z,1.00
2017-12-09T14:32:15.311Z,1.00
2017-12-09T14:34:42.817Z,1.00
2017-12-09T14:37:10.317Z,1.20
2017-12-09T14:39:37.845Z,1.40
2017-12-09T14:42:05.334Z,1.50
2017-12-09T14:44:32.838Z,1.50
2017-12-09T14:47:00.327Z,1.50
2017-12-09T14:49:28.599Z,1.30
2017-12-09T14:51:56.842Z,1.30
2017-12-09T14:54:24.360Z,1.30
2017-12-09T14:56:51.895Z,1.20
2017-12-09T14:59:19.738Z,1.20
2017-12-09T15:01:47.242Z,1.20
2017-12-09T15:04:15.535Z,0.90
2017-12-09T15:06:43.791Z,0.90
2017-12-09T15:09:11.276Z,0.90
2017-12-09T15:11:39.560Z,1.00
2017-12-09T15:14:07.817Z,1.00
2017-12-09T15:16:35.404Z,1.00
2017-12-09T15:19:02.882Z,1.00
2017-12-09T15:21:30.399Z,1.00
2017-12-09T15:23:57.886Z,1.10
2017-12-09T15:26:26.170Z,0.90
2017-12-09T15:28:54.415Z,1.00
2017-12-09T15:31:21.947Z,1.00
2017-12-09T15:33:49.444Z,1.00
2017-12-09T15:36:17.732Z,1.10
2017-12-09T15:38:45.261Z,1.00
2017-12-09T15:41:12.730Z,1.00
2017-12-09T15:43:40.241Z,1.10
2017-12-09T15:46:08.479Z,1.00
2017-12-09T15:48:36.010Z,0.90
2017-12-09T15:51:03.500Z,1.00
2017-12-09T15:53:30.989Z,0.90
2017-12-09T15:55:58.535Z,0.90
2017-12-09T15:58:26.009Z,1.00
2017-12-09T16:00:53.502Z,0.90
2017-12-09T16:03:21.787Z,1.00
2017-12-09T16:05:50.040Z,1.00
2017-12-09T16:08:17.550Z,1.00
2017-12-09T16:10:46.032Z,0.90
2017-12-09T16:13:13.558Z,0.90
2017-12-09T16:15:41.073Z,1.10
2017-12-09T16:18:08.594Z,0.90
2017-12-09T16:20:36.935Z,0.90
2017-12-09T16:23:04.533Z,0.90
2017-12-09T16:25:32.065Z,0.90
2017-12-09T16:27:59.570Z,0.80
2017-12-09T16:30:27.875Z,0.70
2017-12-09T16:32:55.407Z,0.80
2017-12-09T16:35:22.894Z,0.80
2017-12-09T16:37:50.379Z,0.70
2017-12-09T16:40:17.890Z,0.60
2017-12-09T16:42:45.370Z,0.50
2017-12-09T16:45:13.606Z,0.20
2017-12-09T16:47:41.128Z,0.20
2017-12-09T16:50:08.636Z,0.20
2017-12-09T16:52:36.784Z,0.00
2017-12-09T16:55:04.293Z,-0.10
2017-12-09T16:57:31.827Z,-0.20
2017-12-09T16:59:59.326Z,-0.20
2017-12-09T17:02:26.816Z,-0.20
2017-12-09T17:04:54.346Z,-0.20
2017-12-09T17:07:21.837Z,-0.20
2017-12-09T17:09:50.119Z,-0.40
2017-12-09T17:12:18.370Z,-0.40
2017-12-09T17:14:45.892Z,-0.40
2017-12-09T17:17:13.413Z,-0.30
2017-12-09T17:19:41.799Z,-0.40
2017-12-09T17:22:10.091Z,-0.30
2017-12-09T17:24:38.351Z,-0.40
2017-12-09T17:27:05.847Z,-0.40
2017-12-09T17:29:33.395Z,-0.30
2017-12-09T17:32:01.660Z,-0.40
2017-12-09T17:34:29.951Z,-0.40
2017-12-09T17:36:58.247Z,-0.50
2017-12-09T17:39:25.732Z,-0.50
2017-12-09T17:41:53.256Z,-0.50
2017-12-09T17:44:21.497Z,-0.60
2017-12-09T17:46:49.027Z,-0.60
2017-12-09T17:49:16.570Z,-0.60
2017-12-09T17:51:44.827Z,-0.50
2017-12-09T17:54:12.319Z,-0.50
2017-12-09T17:56:40.597Z,-0.40
2017-12-09T17:59:08.156Z,-0.40
2017-12-09T18:01:36.416Z,-0.40
2017-12-09T18:04:03.964Z,-0.40
2017-12-09T18:06:31.498Z,-0.30
2017-12-09T18:08:58.986Z,-0.30
2017-12-09T18:11:26.512Z,-0.30
2017-12-09T18:13:53.995Z,-0.30
2017-12-09T18:16:21.518Z,-0.30
2017-12-09T18:18:49.782Z,-0.40
2017-12-09T18:21:17.319Z,-0.40
2017-12-09T18:23:44.798Z,-0.40
2017-12-09T18:26:12.323Z,-0.40
2017-12-09T18:28:39.846Z,-0.40
2017-12-09T18:31:08.140Z,-0.60
2017-12-09T18:33:36.390Z,-0.70
2017-12-09T18:36:03.935Z,-0.80
2017-12-09T18:38:31.418Z,-0.70
2017-12-09T18:40:58.913Z,-0.80
2017-12-09T18:43:26.444Z,-0.80
2017-12-09T18:45:53.974Z,-0.90
2017-12-09T18:48:21.470Z,-0.70
2017-12-09T18:50:49.008Z,-0.70
2017-12-09T18:53:16.539Z,-0.70
2017-12-09T18:55:44.017Z,-0.70
2017-12-09T18:58:11.530Z,-0.70
2017-12-09T19:00:39.053Z,-0.70
2017-12-09T19:03:06.542Z,-0.70
2017-12-09T19:05:34.065Z,-0.70
2017-12-09T19:08:01.627Z,-0.60
2017-12-09T19:10:29.162Z,-0.70
2017-12-09T19:12:57.446Z,-0.60
2017-12-09T19:15:25.701Z,-0.70
2017-12-09T19:17:53.241Z,-0.70
2017-12-09T19:20:20.740Z,-0.70
2017-12-09T19:22:49.014Z,-0.70
2017-12-09T19:25:16.538Z,-0.70
2017-12-09T19:27:44.048Z,-0.70
2017-12-09T19:30:11.529Z,-0.80
2017-12-09T19:32:39.053Z,-0.80
2017-12-09T19:35:06.543Z,-0.80
2017-12-09T19:37:34.832Z,-0.70
2017-12-09T19:40:03.130Z,-0.60
2017-12-09T19:42:30.628Z,-0.60
2017-12-09T19:44:58.119Z,-0.60
2017-12-09T19:47:25.643Z,-0.60
2017-12-09T19:49:53.133Z,-0.50
2017-12-09T19:52:20.653Z,-0.50
2017-12-09T19:54:48.143Z,-0.50
2017-12-09T19:57:15.675Z,-0.50
2017-12-09T19:59:43.169Z,-0.50
2017-12-09T20:02:10.683Z,-0.50
2017-12-09T20:04:38.986Z,-0.50
2017-12-09T20:07:06.475Z,-0.50
2017-12-09T20:09:33.957Z,-0.60
2017-12-09T20:12:01.484Z,-0.60
2017-12-09T20:14:28.970Z,-0.60
2017-12-09T20:16:56.452Z,-0.60
2017-12-09T20:19:23.982Z,-0.60
2017-12-09T20:21:51.470Z,-0.70
2017-12-09T20:24:18.982Z,-0.70
2017-12-09T20:26:46.509Z,-0.70
2017-12-09T20:29:13.994Z,-0.70
2017-12-09T20:31:42.274Z,-0.80
2017-12-09T20:34:09.819Z,-0.80
2017-12-09T20:36:37.308Z,-0.80
2017-12-09T20:39:04.804Z,-0.80
2017-12-09T20:41:32.322Z,-0.80
2017-12-09T20:44:00.591Z,-0.80
2017-12-09T20:46:28.108Z,-0.80
2017-12-09T20:48:55.651Z,-0.80
2017-12-09T20:51:23.163Z,-0.80
2017-12-09T20:53:50.663Z,-0.80
2017-12-09T20:56:18.187Z,-0.80
2017-12-09T20:58:45.671Z,-0.80
2017-12-09T21:01:13.223Z,-0.90
2017-12-09T21:03:40.711Z,-0.70
2017-12-09T21:06:08.988Z,-0.70
2017-12-09T21:08:37.260Z,-0.70
2017-12-09T21:11:04.775Z,-0.70
2017-12-09T21:13:32.256Z,-0.70
2017-12-09T21:15:59.785Z,-0.70
2017-12-09T21:18:27.282Z,-0.80
2017-12-09T21:20:54.806Z,-0.70
2017-12-09T21:23:22.310Z,-0.70
2017-12-09T21:25:49.833Z,-0.70
2017-12-09T21:28:17.322Z,-0.60
2017-12-09T21:30:44.804Z,-0.60
2017-12-09T21:33:12.344Z,-0.70
2017-12-09T21:35:39.827Z,-0.80
2017-12-09T21:38:07.312Z,-0.80
2017-12-09T21:40:34.931Z,-0.90
2017-12-09T21:43:02.410Z,-1.00
2017-12-09T21:45:29.912Z,-1.00
2017-12-09T21:47:58.200Z,-1.10
2017-12-09T21:50:26.487Z,-1.10
2017-12-09T21:52:54.767Z,-1.30
2017-12-09T21:55:23.029Z,-1.30
2017-12-09T21:57:50.562Z,-1.40
2017-12-09T22:00:20.803Z,-1.40
2017-12-09T22:02:48.312Z,-1.40
2017-12-09T22:05:15.834Z,-1.40
2017-12-09T22:07:43.327Z,-1.30
2017-12-09T22:10:11.623Z,-1.30
2017-12-09T22:12:39.162Z,-1.30
2017-12-09T22:15:07.453Z,-1.40
2017-12-09T22:17:35.713Z,-1.40
2017-12-09T22:20:03.237Z,-1.50
2017-12-09T22:22:30.743Z,-1.50
2017-12-09T22:24:58.245Z,-1.50
2017-12-09T22:27:25.729Z,-1.40
2017-12-09T22:29:53.237Z,-1.50
2017-12-09T22:32:21.477Z,-1.40
2017-12-09T22:34:48.975Z,-1.50
2017-12-09T22:37:17.221Z,-1.50
2017-12-09T22:39:44.749Z,-1.50
2017-12-09T22:42:12.238Z,-1.60
2017-12-09T22:44:39.724Z,-1.60
2017-12-09T22:47:07.256Z,-1.70
2017-12-09T22:49:34.786Z,-1.70
2017-12-09T22:52:03.063Z,-1.80
2017-12-09T22:54:31.345Z,-1.90
2017-12-09T22:56:59.600Z,-1.90
2017-12-09T22:59:27.121Z,-1.90
2017-12-09T23:01:54.604Z,-1.90
2017-12-09T23:04:22.081Z,-2.00
2017-12-09T23:06:49.593Z,-2.10
2017-12-09T23:09:17.094Z,-2.10
2017-12-09T23:11:44.634Z,-2.20
2017-12-09T23:14:12.113Z,-2.20
2017-12-09T23:16:39.622Z,-2.30
2017-12-09T23:19:07.871Z,-2.40
2017-12-09T23:21:35.350Z,-2.40
2017-12-09T23:24:02.822Z,-2.50
2017-12-09T23:26:30.354Z,-2.60
2017-12-09T23:28:57.850Z,-2.50
2017-12-09T23:31:25.381Z,-2.60
2017-12-09T23:33:52.867Z,-2.60
2017-12-09T23:36:20.393Z,-2.70
2017-12-09T23:38:48.640Z,-2.80
2017-12-09T23:41:16.218Z,-2.80
2017-12-09T23:43:43.734Z,-2.70
2017-12-09T23:46:11.215Z,-2.80
2017-12-09T23:48:39.520Z,-2.80
2017-12-09T23:51:06.998Z,-2.80
2017-12-09T23:53:34.487Z,-2.80
2017-12-09T23:56:02.010Z,-2.80
2017-12-09T23:58:29.498Z,-2.80
